sensor_id;sensor_type;location;lat;lon;timestamp;temperature;humidity
5775;DHT22;2913;51.120;6.772;2024-01-15T00:01:47;1.50;99.90
5775;DHT22;2913;51.120;6.772;2024-01-15T00:04:15;1.50;99.90
5775;DHT22;2913;51.120;6.772;2024-01-15T00:06:42;1.60;99.90
5775;DHT22;2913;51.120;6.772;2024-01-15T00:09:11;1.60;99.90
5775;DHT22;2913;51.120;6.772;2024-01-15T00:11:38;1.50;99.90
5775;DHT22;2913;51.120;6.772;2024-01-15T00:14:04;1.60;99.90
5775;DHT22;2913;51.120;6.772;2024-01-15T00:16:30;1.50;99.90
5775;DHT22;2913;51.120;6.772;2024-01-15T00:21:26;1.50;99.90
5775;DHT22;2913;51.120;6.772;2024-01-15T00:23:54;1.50;99.90
5775;DHT22;2913;51.120;6.772;2024-01-15T00:26:22;1.50;99.90
5775;DHT22;2913;51.120;6.772;2024-01-15T00:28:48;1.50;99.90
5775;DHT22;2913;51.120;6.772;2024-01-15T00:31:16;1.40;99.90
5775;DHT22;2913;51.120;6.772;2024-01-15T00:33:42;1.40;99.90
5775;DHT22;2913;51.120;6.772;2024-01-15T00:36:10;1.50;99.90
5775;DHT22;2913;51.120;6.772;2024-01-15T00:38:36;1.40;99.90
5775;DHT22;2913;51.120;6.772;2024-01-15T00:41:04;1.40;99.90
5775;DHT22;2913;51.120;6.772;2024-01-15T00:43:32;1.40;99.90
5775;DHT22;2913;51.120;6.772;2024-01-15T00:46:02;1.40;99.90
5775;DHT22;2913;51.120;6.772;2024-01-15T00:48:34;1.40;99.90
5775;DHT22;2913;51.120;6.772;2024-01-15T00:51:04;1.50;99.90
5775;DHT22;2913;51.120;6.772;2024-01-15T00:53:32;1.50;99.90
5775;DHT22;2913;51.120;6.772;2024-01-15T00:55:58;1.40;99.90
5775;DHT22;2913;51.120;6.772;2024-01-15T00:58:23;1.50;99.90
5775;DHT22;2913;51.120;6.772;2024-01-15T01:03:20;1.40;99.90
5775;DHT22;2913;51.120;6.772;2024-01-15T01:05:46;1.40;99.90
5775;DHT22;2913;51.120;6.772;2024-01-15T01:08:15;1.40;99.90
5775;DHT22;2913;51.120;6.772;2024-01-15T01:10:43;1.40;99.90
5775;DHT22;2913;51.120;6.772;2024-01-15T01:13:09;1.30;99.90
5775;DHT22;2913;51.120;6.772;2024-01-15T01:15:35;1.40;99.90
5775;DHT22;2913;51.120;6.772;2024-01-15T01:18:00;1.30;99.90
5775;DHT22;2913;51.120;6.772;2024-01-15T01:20:26;1.30;99.90
5775;DHT22;2913;51.120;6.772;2024-01-15T01:22:54;1.40;99.90
5775;DHT22;2913;51.120;6.772;2024-01-15T01:25:22;1.30;99.90
5775;DHT22;2913;51.120;6.772;2024-01-15T01:27:49;1.30;99.90
5775;DHT22;2913;51.120;6.772;2024-01-15T01:30:15;1.40;99.90
5775;DHT22;2913;51.120;6.772;2024-01-15T01:32:41;1.40;99.90
5775;DHT22;2913;51.120;6.772;2024-01-15T01:35:08;1.40;99.90
5775;DHT22;2913;51.120;6.772;2024-01-15T01:37:34;1.40;99.90
5775;DHT22;2913;51.120;6.772;2024-01-15T01:40:02;1.50;99.90
5775;DHT22;2913;51.120;6.772;2024-01-15T01:42:28;1.50;99.90
5775;DHT22;2913;51.120;6.772;2024-01-15T01:44:54;1.60;99.90
5775;DHT22;2913;51.120;6.772;2024-01-15T01:47:22;1.50;99.90
5775;DHT22;2913;51.120;6.772;2024-01-15T01:49:52;1.50;99.90
5775;DHT22;2913;51.120;6.772;2024-01-15T01:52:18;1.50;99.90
5775;DHT22;2913;51.120;6.772;2024-01-15T01:54:46;1.60;99.90
5775;DHT22;2913;51.120;6.772;2024-01-15T01:57:12;1.60;99.90
5775;DHT22;2913;51.120;6.772;2024-01-15T01:59:38;1.50;99.90
5775;DHT22;2913;51.120;6.772;2024-01-15T02:04:31;1.60;99.90
5775;DHT22;2913;51.120;6.772;2024-01-15T02:06:59;1.60;99.90
5775;DHT22;2913;51.120;6.772;2024-01-15T02:09:25;1.60;99.90
5775;DHT22;2913;51.120;6.772;2024-01-15T02:11:50;1.70;99.90
5775;DHT22;2913;51.120;6.772;2024-01-15T02:14:21;1.70;99.90
5775;DHT22;2913;51.120;6.772;2024-01-15T02:16:47;1.70;99.90
5775;DHT22;2913;51.120;6.772;2024-01-15T02:19:16;1.70;99.90
5775;DHT22;2913;51.120;6.772;2024-01-15T02:21:45;1.60;99.90
5775;DHT22;2913;51.120;6.772;2024-01-15T02:24:11;1.60;99.90
5775;DHT22;2913;51.120;6.772;2024-01-15T02:26:37;1.70;99.90
5775;DHT22;2913;51.120;6.772;2024-01-15T02:29:06;1.70;99.90
5775;DHT22;2913;51.120;6.772;2024-01-15T02:31:32;1.70;99.90
5775;DHT22;2913;51.120;6.772;2024-01-15T02:33:57;1.80;99.90
5775;DHT22;2913;51.120;6.772;2024-01-15T02:36:23;1.80;99.90
5775;DHT22;2913;51.120;6.772;2024-01-15T02:38:48;1.80;99.90
5775;DHT22;2913;51.120;6.772;2024-01-15T02:41:14;1.80;99.90
5775;DHT22;2913;51.120;6.772;2024-01-15T02:43:42;1.80;99.90
5775;DHT22;2913;51.120;6.772;2024-01-15T02:46:08;4.30;99.90
5775;DHT22;2913;51.120;6.772;2024-01-15T02:51:02;1.80;99.90
5775;DHT22;2913;51.120;6.772;2024-01-15T02:53:28;1.80;99.90
5775;DHT22;2913;51.120;6.772;2024-01-15T02:55:56;1.80;99.90
5775;DHT22;2913;51.120;6.772;2024-01-15T02:58:22;1.80;99.90
5775;DHT22;2913;51.120;6.772;2024-01-15T03:05:39;1.80;99.90
5775;DHT22;2913;51.120;6.772;2024-01-15T03:08:05;1.80;99.90
5775;DHT22;2913;51.120;6.772;2024-01-15T03:10:33;1.80;99.90
5775;DHT22;2913;51.120;6.772;2024-01-15T03:15:25;1.80;99.90
5775;DHT22;2913;51.120;6.772;2024-01-15T03:17:50;4.80;99.90
5775;DHT22;2913;51.120;6.772;2024-01-15T03:20:16;1.80;99.90
5775;DHT22;2913;51.120;6.772;2024-01-15T03:25:07;1.80;99.90
5775;DHT22;2913;51.120;6.772;2024-01-15T03:27:33;1.80;99.90
5775;DHT22;2913;51.120;6.772;2024-01-15T03:29:59;1.80;99.90
5775;DHT22;2913;51.120;6.772;2024-01-15T03:32:27;1.80;99.90
5775;DHT22;2913;51.120;6.772;2024-01-15T03:34:53;1.90;99.90
5775;DHT22;2913;51.120;6.772;2024-01-15T03:37:19;1.80;99.90
5775;DHT22;2913;51.120;6.772;2024-01-15T03:39:45;1.90;99.90
5775;DHT22;2913;51.120;6.772;2024-01-15T03:42:13;1.90;99.90
5775;DHT22;2913;51.120;6.772;2024-01-15T03:44:39;1.90;99.90
5775;DHT22;2913;51.120;6.772;2024-01-15T03:47:07;1.80;99.90
5775;DHT22;2913;51.120;6.772;2024-01-15T03:49:35;2.00;99.90
5775;DHT22;2913;51.120;6.772;2024-01-15T03:52:03;2.00;99.90
5775;DHT22;2913;51.120;6.772;2024-01-15T03:54:29;2.00;99.90
5775;DHT22;2913;51.120;6.772;2024-01-15T03:56:54;2.00;99.90
5775;DHT22;2913;51.120;6.772;2024-01-15T03:59:22;1.90;99.90
5775;DHT22;2913;51.120;6.772;2024-01-15T04:01:51;2.00;99.90
5775;DHT22;2913;51.120;6.772;2024-01-15T04:04:17;1.90;99.90
5775;DHT22;2913;51.120;6.772;2024-01-15T04:06:46;2.00;99.90
5775;DHT22;2913;51.120;6.772;2024-01-15T04:09:14;1.90;99.90
5775;DHT22;2913;51.120;6.772;2024-01-15T04:11:40;2.00;99.90
5775;DHT22;2913;51.120;6.772;2024-01-15T04:14:06;2.00;99.90
5775;DHT22;2913;51.120;6.772;2024-01-15T04:16:34;2.00;99.90
5775;DHT22;2913;51.120;6.772;2024-01-15T04:18:59;2.00;99.90
5775;DHT22;2913;51.120;6.772;2024-01-15T04:21:25;2.00;99.90
5775;DHT22;2913;51.120;6.772;2024-01-15T04:23:50;2.00;99.90
5775;DHT22;2913;51.120;6.772;2024-01-15T04:26:18;2.00;99.90
5775;DHT22;2913;51.120;6.772;2024-01-15T04:28:44;2.00;99.90
5775;DHT22;2913;51.120;6.772;2024-01-15T04:31:10;2.00;99.90
5775;DHT22;2913;51.120;6.772;2024-01-15T04:33:47;2.00;99.90
5775;DHT22;2913;51.120;6.772;2024-01-15T04:36:15;2.00;99.90
5775;DHT22;2913;51.120;6.772;2024-01-15T04:38:40;2.00;99.90
5775;DHT22;2913;51.120;6.772;2024-01-15T04:41:06;5.20;99.90
5775;DHT22;2913;51.120;6.772;2024-01-15T04:43:34;1.90;99.90
5775;DHT22;2913;51.120;6.772;2024-01-15T04:46:00;2.00;99.90
5775;DHT22;2913;51.120;6.772;2024-01-15T04:48:26;2.00;99.90
5775;DHT22;2913;51.120;6.772;2024-01-15T04:50:51;2.00;99.90
5775;DHT22;2913;51.120;6.772;2024-01-15T04:55:43;2.10;99.90
5775;DHT22;2913;51.120;6.772;2024-01-15T04:58:09;2.10;99.90
5775;DHT22;2913;51.120;6.772;2024-01-15T05:00:34;2.10;99.90
5775;DHT22;2913;51.120;6.772;2024-01-15T05:03:03;2.20;99.90
5775;DHT22;2913;51.120;6.772;2024-01-15T05:07:57;2.10;99.90
5775;DHT22;2913;51.120;6.772;2024-01-15T05:10:25;4.30;99.90
5775;DHT22;2913;51.120;6.772;2024-01-15T05:12:50;2.20;99.90
5775;DHT22;2913;51.120;6.772;2024-01-15T05:15:16;2.10;99.90
5775;DHT22;2913;51.120;6.772;2024-01-15T05:17:41;2.10;99.90
5775;DHT22;2913;51.120;6.772;2024-01-15T05:20:07;2.10;99.90
5775;DHT22;2913;51.120;6.772;2024-01-15T05:22:35;2.10;99.90
5775;DHT22;2913;51.120;6.772;2024-01-15T05:25:01;2.10;99.90
5775;DHT22;2913;51.120;6.772;2024-01-15T05:27:27;2.10;99.90
5775;DHT22;2913;51.120;6.772;2024-01-15T05:32:20;2.20;99.90
5775;DHT22;2913;51.120;6.772;2024-01-15T05:34:51;2.20;99.90
5775;DHT22;2913;51.120;6.772;2024-01-15T05:37:19;4.20;99.90
5775;DHT22;2913;51.120;6.772;2024-01-15T05:39:46;2.10;99.90
5775;DHT22;2913;51.120;6.772;2024-01-15T05:42:14;2.10;99.90
5775;DHT22;2913;51.120;6.772;2024-01-15T05:44:40;2.00;99.90
5775;DHT22;2913;51.120;6.772;2024-01-15T05:47:05;2.10;99.90
5775;DHT22;2913;51.120;6.772;2024-01-15T05:49:31;2.10;99.90
5775;DHT22;2913;51.120;6.772;2024-01-15T05:51:57;2.10;99.90
5775;DHT22;2913;51.120;6.772;2024-01-15T05:54:25;2.10;99.90
5775;DHT22;2913;51.120;6.772;2024-01-15T05:56:50;2.10;99.90
5775;DHT22;2913;51.120;6.772;2024-01-15T05:59:16;2.10;99.90
5775;DHT22;2913;51.120;6.772;2024-01-15T06:01:42;2.10;99.90
5775;DHT22;2913;51.120;6.772;2024-01-15T06:06:34;2.10;99.90
5775;DHT22;2913;51.120;6.772;2024-01-15T06:11:34;2.00;99.90
5775;DHT22;2913;51.120;6.772;2024-01-15T06:14:01;2.10;99.90
5775;DHT22;2913;51.120;6.772;2024-01-15T06:16:28;2.10;99.90
5775;DHT22;2913;51.120;6.772;2024-01-15T06:18:54;2.10;99.90
5775;DHT22;2913;51.120;6.772;2024-01-15T06:21:20;2.10;99.90
5775;DHT22;2913;51.120;6.772;2024-01-15T06:23:45;2.20;99.90
5775;DHT22;2913;51.120;6.772;2024-01-15T06:26:14;2.10;99.90
5775;DHT22;2913;51.120;6.772;2024-01-15T06:28:40;2.10;99.90
5775;DHT22;2913;51.120;6.772;2024-01-15T06:31:07;2.20;99.90
5775;DHT22;2913;51.120;6.772;2024-01-15T06:33:32;2.00;99.90
5775;DHT22;2913;51.120;6.772;2024-01-15T06:36:01;2.20;99.90
5775;DHT22;2913;51.120;6.772;2024-01-15T06:40:52;2.20;99.90
5775;DHT22;2913;51.120;6.772;2024-01-15T06:43:18;2.20;99.90
5775;DHT22;2913;51.120;6.772;2024-01-15T06:45:44;2.20;99.90
5775;DHT22;2913;51.120;6.772;2024-01-15T06:48:10;2.10;99.90
5775;DHT22;2913;51.120;6.772;2024-01-15T06:50:40;2.10;99.90
5775;DHT22;2913;51.120;6.772;2024-01-15T06:53:08;2.10;99.90
5775;DHT22;2913;51.120;6.772;2024-01-15T06:55:36;2.10;99.90
5775;DHT22;2913;51.120;6.772;2024-01-15T06:58:01;2.10;99.90
5775;DHT22;2913;51.120;6.772;2024-01-15T07:00:27;2.10;99.90
5775;DHT22;2913;51.120;6.772;2024-01-15T07:02:53;2.10;99.90
5775;DHT22;2913;51.120;6.772;2024-01-15T07:05:21;2.10;99.90
5775;DHT22;2913;51.120;6.772;2024-01-15T07:07:46;2.10;99.90
5775;DHT22;2913;51.120;6.772;2024-01-15T07:10:14;2.00;99.90
5775;DHT22;2913;51.120;6.772;2024-01-15T07:12:44;2.10;99.90
5775;DHT22;2913;51.120;6.772;2024-01-15T07:15:10;2.10;99.90
5775;DHT22;2913;51.120;6.772;2024-01-15T07:20:09;2.20;99.90
5775;DHT22;2913;51.120;6.772;2024-01-15T07:22:36;2.20;99.90
5775;DHT22;2913;51.120;6.772;2024-01-15T07:25:02;2.20;99.90
5775;DHT22;2913;51.120;6.772;2024-01-15T07:29:53;2.20;99.90
5775;DHT22;2913;51.120;6.772;2024-01-15T07:32:19;2.20;99.90
5775;DHT22;2913;51.120;6.772;2024-01-15T07:34:45;2.10;99.90
5775;DHT22;2913;51.120;6.772;2024-01-15T07:37:11;2.10;99.90
5775;DHT22;2913;51.120;6.772;2024-01-15T07:42:03;2.10;99.90
5775;DHT22;2913;51.120;6.772;2024-01-15T07:44:29;2.10;99.90
5775;DHT22;2913;51.120;6.772;2024-01-15T07:46:55;2.20;99.90
5775;DHT22;2913;51.120;6.772;2024-01-15T07:49:20;2.10;99.90
5775;DHT22;2913;51.120;6.772;2024-01-15T07:51:46;2.10;99.90
5775;DHT22;2913;51.120;6.772;2024-01-15T07:54:14;2.10;99.90
5775;DHT22;2913;51.120;6.772;2024-01-15T07:57:01;2.20;99.90
5775;DHT22;2913;51.120;6.772;2024-01-15T07:59:28;2.10;99.90
5775;DHT22;2913;51.120;6.772;2024-01-15T08:04:22;2.20;99.90
5775;DHT22;2913;51.120;6.772;2024-01-15T08:06:52;2.20;99.90
5775;DHT22;2913;51.120;6.772;2024-01-15T08:09:20;2.10;99.90
5775;DHT22;2913;51.120;6.772;2024-01-15T08:11:46;2.20;99.90
5775;DHT22;2913;51.120;6.772;2024-01-15T08:14:12;2.20;99.90
5775;DHT22;2913;51.120;6.772;2024-01-15T08:16:38;2.20;99.90
5775;DHT22;2913;51.120;6.772;2024-01-15T08:19:04;2.20;99.90
5775;DHT22;2913;51.120;6.772;2024-01-15T08:21:30;2.20;99.90
5775;DHT22;2913;51.120;6.772;2024-01-15T08:24:00;2.20;99.90
5775;DHT22;2913;51.120;6.772;2024-01-15T08:26:30;2.00;99.90
5775;DHT22;2913;51.120;6.772;2024-01-15T08:28:56;2.10;99.90
5775;DHT22;2913;51.120;6.772;2024-01-15T08:31:24;2.10;99.90
5775;DHT22;2913;51.120;6.772;2024-01-15T08:33:49;2.10;99.90
5775;DHT22;2913;51.120;6.772;2024-01-15T08:41:09;2.00;99.90
5775;DHT22;2913;51.120;6.772;2024-01-15T08:46:03;2.00;99.90
5775;DHT22;2913;51.120;6.772;2024-01-15T08:53:24;1.80;99.90
5775;DHT22;2913;51.120;6.772;2024-01-15T08:55:51;2.00;99.90
5775;DHT22;2913;51.120;6.772;2024-01-15T08:58:19;1.90;99.90
5775;DHT22;2913;51.120;6.772;2024-01-15T09:00:45;2.00;99.90
5775;DHT22;2913;51.120;6.772;2024-01-15T09:03:10;2.00;99.90
5775;DHT22;2913;51.120;6.772;2024-01-15T09:05:36;2.10;99.90
5775;DHT22;2913;51.120;6.772;2024-01-15T09:08:04;2.00;99.90
5775;DHT22;2913;51.120;6.772;2024-01-15T09:10:30;2.10;99.90
5775;DHT22;2913;51.120;6.772;2024-01-15T09:12:55;2.10;99.90
5775;DHT22;2913;51.120;6.772;2024-01-15T09:15:21;2.10;99.90
5775;DHT22;2913;51.120;6.772;2024-01-15T09:17:49;2.00;99.90
5775;DHT22;2913;51.120;6.772;2024-01-15T09:20:15;2.10;99.90
5775;DHT22;2913;51.120;6.772;2024-01-15T09:22:46;2.10;99.90
5775;DHT22;2913;51.120;6.772;2024-01-15T09:25:14;2.00;99.90
5775;DHT22;2913;51.120;6.772;2024-01-15T09:27:42;2.10;99.90
5775;DHT22;2913;51.120;6.772;2024-01-15T09:30:08;2.10;99.90
5775;DHT22;2913;51.120;6.772;2024-01-15T09:32:34;2.10;99.90
5775;DHT22;2913;51.120;6.772;2024-01-15T09:34:59;2.10;99.90
5775;DHT22;2913;51.120;6.772;2024-01-15T09:39:56;2.10;99.90
5775;DHT22;2913;51.120;6.772;2024-01-15T09:42:24;2.20;99.90
5775;DHT22;2913;51.120;6.772;2024-01-15T09:44:51;2.20;99.90
5775;DHT22;2913;51.120;6.772;2024-01-15T09:47:18;2.20;99.90
5775;DHT22;2913;51.120;6.772;2024-01-15T09:52:15;2.20;99.90
5775;DHT22;2913;51.120;6.772;2024-01-15T09:54:46;2.20;99.90
5775;DHT22;2913;51.120;6.772;2024-01-15T09:57:15;2.30;99.90
5775;DHT22;2913;51.120;6.772;2024-01-15T09:59:43;2.30;99.90
5775;DHT22;2913;51.120;6.772;2024-01-15T10:02:11;2.30;99.90
5775;DHT22;2913;51.120;6.772;2024-01-15T10:04:39;2.40;99.90
5775;DHT22;2913;51.120;6.772;2024-01-15T10:07:15;2.50;99.90
5775;DHT22;2913;51.120;6.772;2024-01-15T10:09:45;2.40;99.90
5775;DHT22;2913;51.120;6.772;2024-01-15T10:12:14;2.40;99.90
5775;DHT22;2913;51.120;6.772;2024-01-15T10:14:43;2.50;99.90
5775;DHT22;2913;51.120;6.772;2024-01-15T10:17:16;2.50;99.90
5775;DHT22;2913;51.120;6.772;2024-01-15T10:19:45;2.50;99.90
5775;DHT22;2913;51.120;6.772;2024-01-15T10:22:13;2.50;99.90
5775;DHT22;2913;51.120;6.772;2024-01-15T10:24:40;2.50;99.90
5775;DHT22;2913;51.120;6.772;2024-01-15T10:27:07;2.40;99.90
5775;DHT22;2913;51.120;6.772;2024-01-15T10:29:32;2.40;99.90
5775;DHT22;2913;51.120;6.772;2024-01-15T10:32:11;2.30;99.90
5775;DHT22;2913;51.120;6.772;2024-01-15T10:34:40;2.40;99.90
5775;DHT22;2913;51.120;6.772;2024-01-15T10:37:09;2.40;99.90
5775;DHT22;2913;51.120;6.772;2024-01-15T10:39:35;2.40;99.90
5775;DHT22;2913;51.120;6.772;2024-01-15T10:42:02;2.40;99.90
5775;DHT22;2913;51.120;6.772;2024-01-15T10:44:29;2.40;99.90
5775;DHT22;2913;51.120;6.772;2024-01-15T10:46:55;2.50;99.90
5775;DHT22;2913;51.120;6.772;2024-01-15T10:49:24;2.50;99.90
5775;DHT22;2913;51.120;6.772;2024-01-15T10:51:53;2.60;99.90
5775;DHT22;2913;51.120;6.772;2024-01-15T10:54:21;2.60;99.90
5775;DHT22;2913;51.120;6.772;2024-01-15T10:56:50;2.60;99.90
5775;DHT22;2913;51.120;6.772;2024-01-15T10:59:16;2.60;99.90
5775;DHT22;2913;51.120;6.772;2024-01-15T11:01:42;2.60;99.90
5775;DHT22;2913;51.120;6.772;2024-01-15T11:04:09;2.60;99.90
5775;DHT22;2913;51.120;6.772;2024-01-15T11:06:45;2.70;99.90
5775;DHT22;2913;51.120;6.772;2024-01-15T11:09:16;2.60;99.90
5775;DHT22;2913;51.120;6.772;2024-01-15T11:11:45;2.80;99.90
5775;DHT22;2913;51.120;6.772;2024-01-15T11:14:41;2.80;99.90
5775;DHT22;2913;51.120;6.772;2024-01-15T11:17:10;2.80;99.90
5775;DHT22;2913;51.120;6.772;2024-01-15T11:19:47;2.70;99.90
5775;DHT22;2913;51.120;6.772;2024-01-15T11:25:13;2.90;99.90
5775;DHT22;2913;51.120;6.772;2024-01-15T11:27:41;2.80;99.90
5775;DHT22;2913;51.120;6.772;2024-01-15T11:30:11;2.80;99.90
5775;DHT22;2913;51.120;6.772;2024-01-15T11:32:40;2.80;99.90
5775;DHT22;2913;51.120;6.772;2024-01-15T11:35:12;2.70;99.90
5775;DHT22;2913;51.120;6.772;2024-01-15T11:40:37;2.80;99.90
5775;DHT22;2913;51.120;6.772;2024-01-15T11:43:06;2.90;99.90
5775;DHT22;2913;51.120;6.772;2024-01-15T11:45:37;3.00;99.90
5775;DHT22;2913;51.120;6.772;2024-01-15T11:48:13;3.10;99.90
5775;DHT22;2913;51.120;6.772;2024-01-15T11:50:50;3.10;99.90
5775;DHT22;2913;51.120;6.772;2024-01-15T11:53:37;3.30;99.90
5775;DHT22;2913;51.120;6.772;2024-01-15T11:56:14;3.40;99.90
5775;DHT22;2913;51.120;6.772;2024-01-15T11:58:41;3.60;99.90
5775;DHT22;2913;51.120;6.772;2024-01-15T12:01:07;3.50;99.90
5775;DHT22;2913;51.120;6.772;2024-01-15T12:03:33;3.60;99.90
5775;DHT22;2913;51.120;6.772;2024-01-15T12:06:00;3.60;99.90
5775;DHT22;2913;51.120;6.772;2024-01-15T12:08:25;3.70;99.90
5775;DHT22;2913;51.120;6.772;2024-01-15T12:10:54;3.60;99.90
5775;DHT22;2913;51.120;6.772;2024-01-15T12:13:20;3.60;99.90
5775;DHT22;2913;51.120;6.772;2024-01-15T12:15:51;3.60;99.90
5775;DHT22;2913;51.120;6.772;2024-01-15T12:18:18;3.60;99.90
5775;DHT22;2913;51.120;6.772;2024-01-15T12:20:46;3.50;99.90
5775;DHT22;2913;51.120;6.772;2024-01-15T12:23:14;3.40;99.90
5775;DHT22;2913;51.120;6.772;2024-01-15T12:25:41;3.40;99.90
5775;DHT22;2913;51.120;6.772;2024-01-15T12:28:07;3.40;99.90
5775;DHT22;2913;51.120;6.772;2024-01-15T12:30:36;3.30;99.90
5775;DHT22;2913;51.120;6.772;2024-01-15T12:33:05;3.20;99.90
5775;DHT22;2913;51.120;6.772;2024-01-15T12:35:34;3.30;99.90
5775;DHT22;2913;51.120;6.772;2024-01-15T12:38:02;3.20;99.90
5775;DHT22;2913;51.120;6.772;2024-01-15T12:40:28;3.20;99.90
5775;DHT22;2913;51.120;6.772;2024-01-15T12:42:54;3.10;99.90
5775;DHT22;2913;51.120;6.772;2024-01-15T12:45:23;3.10;99.90
5775;DHT22;2913;51.120;6.772;2024-01-15T12:47:49;3.10;99.90
5775;DHT22;2913;51.120;6.772;2024-01-15T12:50:18;3.10;99.90
5775;DHT22;2913;51.120;6.772;2024-01-15T12:52:44;3.00;99.90
5775;DHT22;2913;51.120;6.772;2024-01-15T12:57:36;3.10;99.90
5775;DHT22;2913;51.120;6.772;2024-01-15T13:00:06;3.20;99.90
5775;DHT22;2913;51.120;6.772;2024-01-15T13:02:33;3.20;99.90
5775;DHT22;2913;51.120;6.772;2024-01-15T13:04:59;3.20;99.90
5775;DHT22;2913;51.120;6.772;2024-01-15T13:07:25;3.20;99.90
5775;DHT22;2913;51.120;6.772;2024-01-15T13:09:53;3.20;99.90
5775;DHT22;2913;51.120;6.772;2024-01-15T13:12:20;3.20;99.90
5775;DHT22;2913;51.120;6.772;2024-01-15T13:14:48;3.10;99.90
5775;DHT22;2913;51.120;6.772;2024-01-15T13:17:16;3.20;99.90
5775;DHT22;2913;51.120;6.772;2024-01-15T13:19:41;3.20;99.90
5775;DHT22;2913;51.120;6.772;2024-01-15T13:22:09;3.30;99.90
5775;DHT22;2913;51.120;6.772;2024-01-15T13:24:35;3.40;99.90
5775;DHT22;2913;51.120;6.772;2024-01-15T13:27:02;3.40;99.90
5775;DHT22;2913;51.120;6.772;2024-01-15T13:29:29;3.40;99.90
5775;DHT22;2913;51.120;6.772;2024-01-15T13:31:55;3.30;99.90
5775;DHT22;2913;51.120;6.772;2024-01-15T13:34:21;3.40;99.90
5775;DHT22;2913;51.120;6.772;2024-01-15T13:36:47;3.40;99.90
5775;DHT22;2913;51.120;6.772;2024-01-15T13:39:12;3.30;99.90
5775;DHT22;2913;51.120;6.772;2024-01-15T13:41:38;3.30;99.90
5775;DHT22;2913;51.120;6.772;2024-01-15T13:44:06;3.30;99.90
5775;DHT22;2913;51.120;6.772;2024-01-15T13:46:34;3.20;99.90
5775;DHT22;2913;51.120;6.772;2024-01-15T13:48:59;3.20;99.90
5775;DHT22;2913;51.120;6.772;2024-01-15T13:51:25;3.30;99.90
5775;DHT22;2913;51.120;6.772;2024-01-15T13:53:51;3.30;99.90
5775;DHT22;2913;51.120;6.772;2024-01-15T13:56:19;3.20;99.90
5775;DHT22;2913;51.120;6.772;2024-01-15T13:58:44;3.30;99.90
5775;DHT22;2913;51.120;6.772;2024-01-15T14:01:10;3.20;99.90
5775;DHT22;2913;51.120;6.772;2024-01-15T14:03:38;3.10;99.90
5775;DHT22;2913;51.120;6.772;2024-01-15T14:06:04;3.20;99.90
5775;DHT22;2913;51.120;6.772;2024-01-15T14:08:34;3.10;99.90
5775;DHT22;2913;51.120;6.772;2024-01-15T14:11:00;3.10;99.90
5775;DHT22;2913;51.120;6.772;2024-01-15T14:13:29;3.00;99.90
5775;DHT22;2913;51.120;6.772;2024-01-15T14:15:57;3.00;99.90
5775;DHT22;2913;51.120;6.772;2024-01-15T14:18:25;3.00;99.90
5775;DHT22;2913;51.120;6.772;2024-01-15T14:20:53;3.00;99.90
5775;DHT22;2913;51.120;6.772;2024-01-15T14:23:20;3.10;99.90
5775;DHT22;2913;51.120;6.772;2024-01-15T14:25:46;3.10;99.90
5775;DHT22;2913;51.120;6.772;2024-01-15T14:28:13;3.00;99.90
5775;DHT22;2913;51.120;6.772;2024-01-15T14:30:39;3.10;99.90
5775;DHT22;2913;51.120;6.772;2024-01-15T14:33:05;3.20;99.90
5775;DHT22;2913;51.120;6.772;2024-01-15T14:35:30;3.20;99.90
5775;DHT22;2913;51.120;6.772;2024-01-15T14:37:56;3.00;99.90
5775;DHT22;2913;51.120;6.772;2024-01-15T14:40:24;3.10;99.90
5775;DHT22;2913;51.120;6.772;2024-01-15T14:42:50;3.10;99.90
5775;DHT22;2913;51.120;6.772;2024-01-15T14:45:18;3.10;99.90
5775;DHT22;2913;51.120;6.772;2024-01-15T14:47:47;3.00;99.90
5775;DHT22;2913;51.120;6.772;2024-01-15T14:50:14;3.00;99.90
5775;DHT22;2913;51.120;6.772;2024-01-15T14:52:42;3.00;99.90
5775;DHT22;2913;51.120;6.772;2024-01-15T14:55:10;3.00;99.90
5775;DHT22;2913;51.120;6.772;2024-01-15T14:57:38;3.00;99.90
5775;DHT22;2913;51.120;6.772;2024-01-15T15:00:07;3.00;99.90
5775;DHT22;2913;51.120;6.772;2024-01-15T15:02:37;3.00;99.90
5775;DHT22;2913;51.120;6.772;2024-01-15T15:05:05;2.90;99.90
5775;DHT22;2913;51.120;6.772;2024-01-15T15:07:31;3.10;99.90
5775;DHT22;2913;51.120;6.772;2024-01-15T15:09:57;3.10;99.90
5775;DHT22;2913;51.120;6.772;2024-01-15T15:12:22;3.00;99.90
5775;DHT22;2913;51.120;6.772;2024-01-15T15:14:48;3.00;99.90
5775;DHT22;2913;51.120;6.772;2024-01-15T15:17:14;3.00;99.90
5775;DHT22;2913;51.120;6.772;2024-01-15T15:19:42;3.00;99.90
5775;DHT22;2913;51.120;6.772;2024-01-15T15:22:08;2.90;99.90
5775;DHT22;2913;51.120;6.772;2024-01-15T15:24:37;2.90;99.90
5775;DHT22;2913;51.120;6.772;2024-01-15T15:27:05;2.80;99.90
5775;DHT22;2913;51.120;6.772;2024-01-15T15:29:32;2.70;99.90
5775;DHT22;2913;51.120;6.772;2024-01-15T15:32:01;2.70;99.90
5775;DHT22;2913;51.120;6.772;2024-01-15T15:34:29;2.70;99.90
5775;DHT22;2913;51.120;6.772;2024-01-15T15:36:56;2.70;99.90
5775;DHT22;2913;51.120;6.772;2024-01-15T15:39:21;2.70;99.90
5775;DHT22;2913;51.120;6.772;2024-01-15T15:41:47;2.70;99.90
5775;DHT22;2913;51.120;6.772;2024-01-15T15:44:14;2.70;99.90
5775;DHT22;2913;51.120;6.772;2024-01-15T15:46:44;2.60;99.90
5775;DHT22;2913;51.120;6.772;2024-01-15T15:49:12;2.60;99.90
5775;DHT22;2913;51.120;6.772;2024-01-15T15:51:40;2.50;99.90
5775;DHT22;2913;51.120;6.772;2024-01-15T15:54:06;2.50;99.90
5775;DHT22;2913;51.120;6.772;2024-01-15T15:56:35;2.50;99.90
5775;DHT22;2913;51.120;6.772;2024-01-15T15:59:04;2.40;99.90
5775;DHT22;2913;51.120;6.772;2024-01-15T16:01:30;2.40;99.90
5775;DHT22;2913;51.120;6.772;2024-01-15T16:03:56;2.60;99.90
5775;DHT22;2913;51.120;6.772;2024-01-15T16:06:22;2.30;99.90
5775;DHT22;2913;51.120;6.772;2024-01-15T16:08:50;2.40;99.90
5775;DHT22;2913;51.120;6.772;2024-01-15T16:11:16;2.30;99.90
5775;DHT22;2913;51.120;6.772;2024-01-15T16:13:42;2.30;99.90
5775;DHT22;2913;51.120;6.772;2024-01-15T16:16:08;2.30;99.90
5775;DHT22;2913;51.120;6.772;2024-01-15T16:18:36;2.30;99.90
5775;DHT22;2913;51.120;6.772;2024-01-15T16:21:02;2.30;99.90
5775;DHT22;2913;51.120;6.772;2024-01-15T16:23:27;2.30;99.90
5775;DHT22;2913;51.120;6.772;2024-01-15T16:25:55;2.20;99.90
5775;DHT22;2913;51.120;6.772;2024-01-15T16:28:20;2.20;99.90
5775;DHT22;2913;51.120;6.772;2024-01-15T16:30:46;2.20;99.90
5775;DHT22;2913;51.120;6.772;2024-01-15T16:33:12;2.20;99.90
5775;DHT22;2913;51.120;6.772;2024-01-15T16:35:38;2.20;99.90
5775;DHT22;2913;51.120;6.772;2024-01-15T16:38:05;2.20;99.90
5775;DHT22;2913;51.120;6.772;2024-01-15T16:40:31;2.10;99.90
5775;DHT22;2913;51.120;6.772;2024-01-15T16:42:56;2.00;99.90
5775;DHT22;2913;51.120;6.772;2024-01-15T16:45:22;2.00;99.90
5775;DHT22;2913;51.120;6.772;2024-01-15T16:47:50;1.90;99.90
5775;DHT22;2913;51.120;6.772;2024-01-15T16:50:15;2.00;99.90
5775;DHT22;2913;51.120;6.772;2024-01-15T16:55:07;2.00;99.90
5775;DHT22;2913;51.120;6.772;2024-01-15T16:57:33;2.00;99.90
5775;DHT22;2913;51.120;6.772;2024-01-15T16:59:58;1.90;99.90
5775;DHT22;2913;51.120;6.772;2024-01-15T17:02:24;2.00;99.90
5775;DHT22;2913;51.120;6.772;2024-01-15T17:04:52;1.90;99.90
5775;DHT22;2913;51.120;6.772;2024-01-15T17:07:17;1.90;99.90
5775;DHT22;2913;51.120;6.772;2024-01-15T17:09:43;1.90;99.90
5775;DHT22;2913;51.120;6.772;2024-01-15T17:12:09;1.90;99.90
5775;DHT22;2913;51.120;6.772;2024-01-15T17:14:34;1.90;99.90
5775;DHT22;2913;51.120;6.772;2024-01-15T17:17:00;1.90;99.90
5775;DHT22;2913;51.120;6.772;2024-01-15T17:19:28;1.80;99.90
5775;DHT22;2913;51.120;6.772;2024-01-15T17:21:56;1.80;99.90
5775;DHT22;2913;51.120;6.772;2024-01-15T17:24:24;1.80;99.90
5775;DHT22;2913;51.120;6.772;2024-01-15T17:26:51;1.80;99.90
5775;DHT22;2913;51.120;6.772;2024-01-15T17:29:18;1.80;99.90